createdAt,value
2022-10-30T00:02:42.014Z,101102.91
2022-10-30T00:07:44.275Z,101117.69
2022-10-30T00:12:46.052Z,101122.25
2022-10-30T00:17:47.973Z,101120.28
2022-10-30T00:22:49.875Z,101117.22
2022-10-30T00:27:51.785Z,101112.81
2022-10-30T00:32:53.715Z,101105.78
2022-10-30T00:37:56.262Z,101100.78
2022-10-30T00:42:58.508Z,101107.84
2022-10-30T00:48:03.636Z,101092.97
2022-10-30T00:53:09.304Z,101104.31
2022-10-30T00:58:16.269Z,101103.56
2022-10-30T01:03:20.821Z,101094.69
2022-10-30T01:08:22.873Z,101093.63
2022-10-30T01:13:25.451Z,101091.91
2022-10-30T01:18:35.171Z,101096.50
2022-10-30T01:24:14.941Z,101094.75
2022-10-30T01:29:38.678Z,101096.22
2022-10-30T01:34:50.898Z,101099.09
2022-10-30T01:39:53.885Z,101103.91
2022-10-30T01:44:55.827Z,101108.81
2022-10-30T01:50:15.560Z,101108.91
2022-10-30T01:55:30.438Z,101109.94
2022-10-30T02:00:32.446Z,101110.72
2022-10-30T02:05:44.383Z,101107.59
2022-10-30T02:10:48.514Z,101101.97
2022-10-30T02:15:50.709Z,101108.44
2022-10-30T02:20:52.627Z,101098.88
2022-10-30T02:25:54.512Z,101104.63
2022-10-30T02:30:56.285Z,101106.34
2022-10-30T02:35:58.028Z,101105.84
2022-10-30T02:41:00.061Z,101113.31
2022-10-30T02:46:01.913Z,101112.06
2022-10-30T02:51:05.105Z,101121.97
2022-10-30T02:56:12.807Z,101108.03
2022-10-30T03:01:18.172Z,101119.59
2022-10-30T03:06:20.134Z,101124.28
2022-10-30T03:11:21.939Z,101124.16
2022-10-30T03:16:25.636Z,101125.53
2022-10-30T03:21:28.694Z,101126.03
2022-10-30T03:26:30.681Z,101135.34
2022-10-30T03:31:32.878Z,101116.25
2022-10-30T03:36:34.742Z,101129.34
2022-10-30T03:41:36.495Z,101123.88
2022-10-30T03:46:38.635Z,101118.53
2022-10-30T03:51:40.505Z,101111.47
2022-10-30T03:56:42.377Z,101113.97
2022-10-30T04:01:44.318Z,101121.53
2022-10-30T04:06:48.330Z,101104.91
2022-10-30T04:11:50.219Z,101111.19
2022-10-30T04:16:52.235Z,101104.81
2022-10-30T04:21:54.053Z,101110.50
2022-10-30T04:26:56.102Z,101110.91
2022-10-30T04:31:58.000Z,101102.13
2022-10-30T04:36:59.832Z,101106.72
2022-10-30T04:42:02.352Z,101108.91
2022-10-30T04:47:04.259Z,101112.53
2022-10-30T04:52:06.112Z,101111.41
2022-10-30T04:57:08.025Z,101102.69
2022-10-30T05:02:10.652Z,101104.44
2022-10-30T05:07:13.688Z,101105.16
2022-10-30T05:12:16.889Z,101107.09
2022-10-30T05:17:18.898Z,101103.00
2022-10-30T05:22:20.811Z,101084.84
2022-10-30T05:27:22.652Z,101082.16
2022-10-30T05:32:24.632Z,101088.38
2022-10-30T05:37:26.429Z,101076.03
2022-10-30T05:42:28.170Z,101076.66
2022-10-30T05:47:30.021Z,101079.47
2022-10-30T05:52:31.840Z,101071.94
2022-10-30T05:57:33.899Z,101077.09
2022-10-30T06:02:35.718Z,101078.72
2022-10-30T06:07:37.481Z,101073.28
2022-10-30T06:12:39.205Z,101076.03
2022-10-30T06:17:41.237Z,101087.34
2022-10-30T06:22:43.308Z,101085.81
2022-10-30T06:27:45.244Z,101090.47
2022-10-30T06:32:47.140Z,101090.88
2022-10-30T06:37:49.714Z,101093.53
2022-10-30T06:42:53.009Z,101081.25
2022-10-30T06:47:54.844Z,101078.84
2022-10-30T06:52:56.717Z,101079.47
2022-10-30T06:57:59.084Z,101079.59
2022-10-30T07:03:02.959Z,101073.41
2022-10-30T07:08:05.197Z,101067.19
2022-10-30T07:13:06.840Z,101075.38
2022-10-30T07:18:10.696Z,101079.22
2022-10-30T07:23:12.478Z,101071.19
2022-10-30T07:28:14.475Z,101070.63
2022-10-30T07:33:16.431Z,101062.31
2022-10-30T07:38:18.388Z,101053.16
2022-10-30T07:43:20.234Z,101045.44
2022-10-30T07:48:21.835Z,101057.28
2022-10-30T07:53:23.590Z,101062.81
2022-10-30T07:58:25.587Z,101065.28
2022-10-30T08:03:27.372Z,101063.56
2022-10-30T08:08:29.399Z,101058.41
2022-10-30T08:13:31.318Z,101070.41
2022-10-30T08:18:33.479Z,101061.81
2022-10-30T08:23:35.774Z,101047.88
2022-10-30T08:28:37.896Z,101043.81
2022-10-30T08:33:40.429Z,101040.84
2022-10-30T08:38:42.321Z,101050.19
2022-10-30T08:43:44.121Z,101044.75
2022-10-30T08:48:45.939Z,101048.28
2022-10-30T08:53:50.738Z,101049.94
2022-10-30T08:58:52.583Z,101050.00
2022-10-30T09:03:54.370Z,101045.50
2022-10-30T09:08:56.223Z,101047.34
2022-10-30T09:13:58.015Z,101052.41
2022-10-30T09:18:59.873Z,101048.09
2022-10-30T09:24:01.851Z,101053.63
2022-10-30T09:29:03.772Z,101042.66
2022-10-30T09:34:05.755Z,101063.38
2022-10-30T09:39:17.381Z,101060.00
2022-10-30T09:45:23.307Z,101048.09
2022-10-30T09:51:04.165Z,101051.53
2022-10-30T09:56:15.663Z,101045.50
2022-10-30T10:01:29.237Z,101055.25
2022-10-30T10:06:34.694Z,101057.94
2022-10-30T10:11:38.524Z,101050.09
2022-10-30T10:16:42.973Z,101064.13
2022-10-30T10:21:49.582Z,101042.00
2022-10-30T10:27:15.568Z,101037.97
2022-10-30T10:32:40.167Z,101039.59
2022-10-30T10:38:19.345Z,101037.56
2022-10-30T10:44:01.159Z,101029.00
2022-10-30T10:49:15.032Z,101023.94
2022-10-30T10:54:25.327Z,101023.19
2022-10-30T10:59:38.835Z,101026.88
2022-10-30T11:04:54.265Z,101022.59
2022-10-30T11:09:58.006Z,101025.34
2022-10-30T11:15:03.592Z,101024.69
2022-10-30T11:20:29.832Z,101030.16
2022-10-30T11:25:36.730Z,101026.63
2022-10-30T11:30:38.397Z,101016.41
2022-10-30T11:35:43.524Z,101020.00
2022-10-30T11:40:51.887Z,101023.44
2022-10-30T11:45:54.341Z,101022.97
2022-10-30T11:51:00.258Z,101026.34
2022-10-30T11:56:04.348Z,101019.63
2022-10-30T12:01:26.295Z,101017.44
2022-10-30T12:06:30.172Z,101029.47
2022-10-30T12:11:34.663Z,101024.88
2022-10-30T12:16:36.467Z,101014.66
2022-10-30T12:21:41.394Z,101019.06
2022-10-30T12:26:51.541Z,101014.00
2022-10-30T12:31:58.708Z,101013.50
2022-10-30T12:37:08.984Z,101014.28
2022-10-30T12:42:19.004Z,101004.47
2022-10-30T12:47:44.299Z,101001.38
2022-10-30T12:52:59.986Z,100986.47
2022-10-30T12:58:34.507Z,100995.19
2022-10-30T13:03:43.377Z,101001.97
2022-10-30T13:08:53.158Z,100999.59
2022-10-30T13:13:58.470Z,100991.28
2022-10-30T13:19:01.988Z,100995.28
2022-10-30T13:24:11.847Z,100991.56
2022-10-30T13:29:19.645Z,100985.25
2022-10-30T13:34:49.262Z,100972.47
2022-10-30T13:39:57.251Z,100977.72
2022-10-30T13:45:23.604Z,100964.75
2022-10-30T13:50:28.392Z,100968.81
2022-10-30T13:55:32.954Z,100970.94
2022-10-30T14:00:34.758Z,100985.63
2022-10-30T14:05:42.627Z,100988.69
2022-10-30T14:10:46.417Z,100987.06
2022-10-30T14:15:48.402Z,100993.38
2022-10-30T14:20:52.045Z,100999.28
2022-10-30T14:26:05.764Z,100991.75
2022-10-30T14:31:11.263Z,101000.91
2022-10-30T14:36:16.890Z,100998.75
2022-10-30T14:41:25.627Z,101001.59
2022-10-30T14:46:37.884Z,101003.59
2022-10-30T14:51:54.075Z,100995.09
2022-10-30T14:56:56.011Z,101000.91
2022-10-30T15:02:13.113Z,101010.38
2022-10-30T15:07:17.804Z,101013.34
2022-10-30T15:12:34.637Z,101021.16
2022-10-30T15:17:58.565Z,101039.31
2022-10-30T15:23:04.845Z,101043.53
2022-10-30T15:28:13.902Z,101052.59
2022-10-30T15:33:22.662Z,101065.09
2022-10-30T15:38:24.909Z,101065.00
2022-10-30T15:43:31.793Z,101061.28
2022-10-30T15:48:35.479Z,101055.06
2022-10-30T15:53:45.675Z,101057.66
2022-10-30T15:58:54.580Z,101079.13
2022-10-30T16:03:56.439Z,101092.91
2022-10-30T16:08:58.745Z,101090.13
2022-10-30T16:14:08.034Z,101109.59
2022-10-30T16:19:28.010Z,101122.28
2022-10-30T16:24:35.874Z,101136.44
2022-10-30T16:29:38.019Z,101152.41
2022-10-30T16:34:40.699Z,101160.19
2022-10-30T16:39:43.680Z,101160.97
2022-10-30T16:44:46.492Z,101164.81
2022-10-30T16:49:59.106Z,101172.78
2022-10-30T16:55:13.042Z,101171.59
2022-10-30T17:00:27.412Z,101171.56
2022-10-30T17:05:31.884Z,101174.16
2022-10-30T17:10:33.750Z,101187.44
2022-10-30T17:15:35.486Z,101179.66
2022-10-30T17:20:37.645Z,101187.56
2022-10-30T17:25:40.376Z,101195.84
2022-10-30T17:30:43.333Z,101194.34
2022-10-30T17:35:45.475Z,101188.34
2022-10-30T17:40:47.621Z,101199.88
2022-10-30T17:45:49.419Z,101211.28
2022-10-30T17:50:51.682Z,101229.09
2022-10-30T17:56:16.606Z,101230.84
2022-10-30T18:01:22.408Z,101238.09
2022-10-30T18:06:27.011Z,101241.81
2022-10-30T18:11:29.201Z,101250.88
2022-10-30T18:16:31.615Z,101259.91
2022-10-30T18:21:33.440Z,101263.63
2022-10-30T18:26:40.049Z,101271.31
2022-10-30T18:31:42.089Z,101279.25
2022-10-30T18:36:44.287Z,101283.94
2022-10-30T18:41:47.426Z,101290.59
2022-10-30T18:46:49.487Z,101279.72
2022-10-30T18:51:51.383Z,101290.06
2022-10-30T18:56:53.581Z,101306.22
2022-10-30T19:01:55.395Z,101299.06
2022-10-30T19:06:57.275Z,101290.06
2022-10-30T19:11:59.229Z,101293.69
2022-10-30T19:17:01.280Z,101289.19
2022-10-30T19:22:03.264Z,101300.41
2022-10-30T19:27:05.078Z,101306.03
2022-10-30T19:32:07.009Z,101293.69
2022-10-30T19:37:09.625Z,101299.81
2022-10-30T19:42:12.116Z,101298.28
2022-10-30T19:47:14.192Z,101306.28
2022-10-30T19:52:16.303Z,101310.59
2022-10-30T20:02:39.991Z,101307.66
2022-10-30T20:07:42.662Z,101300.94
2022-10-30T20:12:44.573Z,101315.44
2022-10-30T20:17:47.680Z,101317.06
2022-10-30T20:22:49.476Z,101310.69
2022-10-30T20:28:06.631Z,101333.63
2022-10-30T20:33:13.100Z,101349.16
2022-10-30T20:38:20.802Z,101342.75
2022-10-30T20:43:29.554Z,101354.25
2022-10-30T20:48:32.617Z,101354.94
2022-10-30T20:53:34.728Z,101368.84
2022-10-30T20:58:36.604Z,101368.56
2022-10-30T21:03:38.531Z,101378.16
2022-10-30T21:08:40.473Z,101391.59
2022-10-30T21:13:42.370Z,101401.94
2022-10-30T21:18:44.488Z,101406.78
2022-10-30T21:23:46.694Z,101412.13
2022-10-30T21:28:48.398Z,101410.81
2022-10-30T21:33:50.237Z,101413.06
2022-10-30T21:38:52.437Z,101420.50
2022-10-30T21:43:56.553Z,101424.09
2022-10-30T21:49:04.479Z,101435.88
2022-10-30T21:54:06.413Z,101434.22
2022-10-30T21:59:10.551Z,101431.00
2022-10-30T22:04:12.784Z,101428.34
2022-10-30T22:09:18.095Z,101430.34
2022-10-30T22:14:20.204Z,101432.03
2022-10-30T22:19:22.096Z,101435.50
2022-10-30T22:24:24.205Z,101437.25
2022-10-30T22:29:25.967Z,101443.59
2022-10-30T22:34:27.970Z,101449.06
2022-10-30T22:39:29.917Z,101451.22
2022-10-30T22:44:31.987Z,101449.06
2022-10-30T22:49:33.816Z,101450.25
2022-10-30T22:54:35.679Z,101449.66
2022-10-30T22:59:37.525Z,101441.03
2022-10-30T23:04:39.438Z,101444.22
2022-10-30T23:09:41.284Z,101445.50
2022-10-30T23:14:43.159Z,101446.28
2022-10-30T23:19:45.269Z,101457.94
2022-10-30T23:24:48.731Z,101458.97
2022-10-30T23:29:50.610Z,101454.41
2022-10-30T23:34:52.485Z,101456.63
2022-10-30T23:39:54.698Z,101465.16
2022-10-30T23:44:56.581Z,101460.94
2022-10-30T23:49:59.911Z,101469.75
2022-10-30T23:55:01.898Z,101462.56
